createdAt,value
2024-03-24T00:00:34.677Z,81.7
2024-03-24T00:01:34.683Z,81.2
2024-03-24T00:02:34.680Z,81.4
2024-03-24T00:03:34.677Z,81.6
2024-03-24T00:04:34.680Z,81.9
2024-03-24T00:05:34.682Z,82.5
2024-03-24T00:06:34.676Z,82.6
2024-03-24T00:07:34.679Z,82.4
2024-03-24T00:08:34.669Z,81.9
2024-03-24T00:09:34.676Z,81.1
2024-03-24T00:10:34.687Z,81
2024-03-24T00:11:34.712Z,81.2
2024-03-24T00:12:34.669Z,80.7
2024-03-24T00:13:34.679Z,80.1
2024-03-24T00:14:34.677Z,80.5
2024-03-24T00:15:34.673Z,80.8
2024-03-24T00:16:34.741Z,81
2024-03-24T00:17:34.672Z,81
2024-03-24T00:18:34.683Z,80.6
2024-03-24T00:19:34.683Z,80.8
2024-03-24T00:20:34.676Z,80.7
2024-03-24T00:21:34.686Z,81.4
2024-03-24T00:22:34.689Z,81.3
2024-03-24T00:23:34.682Z,81.1
2024-03-24T00:24:34.684Z,81.9
2024-03-24T00:25:34.669Z,81.7
2024-03-24T00:26:34.684Z,81.5
2024-03-24T00:27:34.675Z,81
2024-03-24T00:28:34.725Z,80.9
2024-03-24T00:29:34.681Z,81
2024-03-24T00:30:34.681Z,81.4
2024-03-24T00:31:34.695Z,80.9
2024-03-24T00:32:34.675Z,81.7
2024-03-24T00:33:34.687Z,81.2
2024-03-24T00:34:34.684Z,81.6
2024-03-24T00:35:34.682Z,81.6
2024-03-24T00:36:34.678Z,81.5
2024-03-24T00:37:34.675Z,81.2
2024-03-24T00:38:34.694Z,81.9
2024-03-24T00:39:34.676Z,82.4
2024-03-24T00:40:34.678Z,82.3
2024-03-24T00:41:34.677Z,81.7
2024-03-24T00:42:34.680Z,81.9
2024-03-24T00:43:34.684Z,82
2024-03-24T00:44:34.688Z,81.4
2024-03-24T00:45:34.750Z,81.5
2024-03-24T00:46:34.675Z,80.6
2024-03-24T00:47:34.684Z,80.5
2024-03-24T00:48:34.680Z,80.9
2024-03-24T00:49:34.688Z,81.1
2024-03-24T00:50:34.682Z,81.3
2024-03-24T00:51:34.677Z,81.1
2024-03-24T00:52:34.676Z,80.8
2024-03-24T00:53:34.685Z,81.4
2024-03-24T00:54:34.683Z,81.6
2024-03-24T00:55:34.672Z,82
2024-03-24T00:56:34.687Z,82.6
2024-03-24T00:57:34.678Z,82.5
2024-03-24T00:58:34.676Z,82.1
2024-03-24T00:59:34.680Z,81.9
2024-03-24T01:00:34.682Z,81.8
2024-03-24T01:01:34.684Z,81.9
2024-03-24T01:02:34.730Z,81.2
2024-03-24T01:03:34.709Z,81.6
2024-03-24T01:04:35.161Z,81.8
2024-03-24T01:05:34.685Z,82
2024-03-24T01:06:34.679Z,83.1
2024-03-24T01:07:34.687Z,82.2
2024-03-24T01:08:34.716Z,82.3
2024-03-24T01:09:34.721Z,82.1
2024-03-24T01:10:35.138Z,81.7
2024-03-24T01:11:34.681Z,81.4
2024-03-24T01:12:34.686Z,81.4
2024-03-24T01:13:34.692Z,81
2024-03-24T01:14:34.738Z,81.2
2024-03-24T01:15:34.715Z,80.8
2024-03-24T01:16:34.689Z,81.3
2024-03-24T01:17:34.691Z,81.1
2024-03-24T01:18:34.688Z,81.4
2024-03-24T01:19:34.690Z,82
2024-03-24T01:20:34.679Z,82
2024-03-24T01:21:34.690Z,82
2024-03-24T01:22:34.694Z,81.7
2024-03-24T01:23:34.687Z,81.7
2024-03-24T01:24:34.688Z,82.2
2024-03-24T01:25:34.685Z,82.1
2024-03-24T01:26:34.687Z,81.9
2024-03-24T01:27:34.689Z,82.1
2024-03-24T01:28:34.677Z,81.4
2024-03-24T01:29:34.687Z,81.1
2024-03-24T01:30:34.689Z,81.2
2024-03-24T01:31:34.688Z,81.1
2024-03-24T01:32:34.688Z,81.6
2024-03-24T01:33:34.686Z,81.7
2024-03-24T01:34:34.680Z,81
2024-03-24T01:35:34.682Z,81.5
2024-03-24T01:36:34.735Z,81.9
2024-03-24T01:37:34.692Z,81.6
2024-03-24T01:38:34.679Z,81.6
2024-03-24T01:39:34.685Z,82.1
2024-03-24T01:40:34.684Z,82.4
2024-03-24T01:41:34.683Z,82
2024-03-24T01:42:34.689Z,81.9
2024-03-24T01:43:34.702Z,81
2024-03-24T01:44:34.680Z,81.2
2024-03-24T01:45:34.686Z,81.2
2024-03-24T01:46:34.690Z,81.2
2024-03-24T01:47:34.680Z,81.6
2024-03-24T01:48:35.076Z,81.4
2024-03-24T01:49:34.693Z,81.7
2024-03-24T01:50:34.682Z,82.6
2024-03-24T01:51:34.680Z,82.4
2024-03-24T01:52:34.688Z,82.3
2024-03-24T01:53:34.684Z,83.3
2024-03-24T01:54:34.736Z,82.7
2024-03-24T01:55:34.693Z,83.2
2024-03-24T01:56:34.693Z,82.9
2024-03-24T01:57:34.694Z,81.9
2024-03-24T01:58:34.691Z,81.9
2024-03-24T01:59:34.693Z,82
2024-03-24T02:00:34.728Z,82
2024-03-24T02:01:34.690Z,82.9
2024-03-24T02:02:34.693Z,82.5
2024-03-24T02:03:34.693Z,82.4
2024-03-24T02:04:41.170Z,82.5
2024-03-24T02:05:34.695Z,82.3
2024-03-24T02:06:34.684Z,83.2
2024-03-24T02:07:34.693Z,82.5
2024-03-24T02:08:34.697Z,82.1
2024-03-24T02:09:34.697Z,82.4
2024-03-24T02:10:34.692Z,82.9
2024-03-24T02:11:34.693Z,83.2
2024-03-24T02:12:34.694Z,82.5
2024-03-24T02:13:34.681Z,82.5
2024-03-24T02:14:34.694Z,82.2
2024-03-24T02:15:34.680Z,82.4
2024-03-24T02:16:34.691Z,83
2024-03-24T02:17:34.687Z,83.1
2024-03-24T02:18:34.692Z,83.6
2024-03-24T02:19:34.691Z,83.6
2024-03-24T02:20:34.696Z,84
2024-03-24T02:21:34.692Z,84
2024-03-24T02:22:34.689Z,83.5
2024-03-24T02:23:34.687Z,83.1
2024-03-24T02:24:34.690Z,82.7
2024-03-24T02:25:34.702Z,82.8
2024-03-24T02:26:34.689Z,82.7
2024-03-24T02:27:34.693Z,83.4
2024-03-24T02:28:34.694Z,82.9
2024-03-24T02:29:34.685Z,82.8
2024-03-24T02:30:34.684Z,82.7
2024-03-24T02:31:34.693Z,82.9
2024-03-24T02:32:34.689Z,83.1
2024-03-24T02:33:34.688Z,83.6
2024-03-24T02:34:34.696Z,84.1
2024-03-24T02:35:34.696Z,84.5
2024-03-24T02:36:34.700Z,84.1
2024-03-24T02:37:34.694Z,84.4
2024-03-24T02:38:34.691Z,84.7
2024-03-24T02:39:34.697Z,84.5
2024-03-24T02:40:34.695Z,84.5
2024-03-24T02:41:34.698Z,84.3
2024-03-24T02:42:34.736Z,84.2
2024-03-24T02:43:34.702Z,83.5
2024-03-24T02:44:34.689Z,84
2024-03-24T02:45:34.691Z,84.7
2024-03-24T02:46:34.702Z,85.1
2024-03-24T02:47:34.697Z,85.3
2024-03-24T02:48:34.686Z,85.2
2024-03-24T02:49:34.694Z,85.1
2024-03-24T02:50:34.700Z,85
2024-03-24T02:51:34.690Z,85
2024-03-24T02:52:34.735Z,84.7
2024-03-24T02:53:34.693Z,84.5
2024-03-24T02:54:34.696Z,84.5
2024-03-24T02:55:34.695Z,84.2
2024-03-24T02:56:34.693Z,84.6
2024-03-24T02:57:34.730Z,84.7
2024-03-24T02:58:34.695Z,85
2024-03-24T02:59:34.691Z,85
2024-03-24T03:00:34.696Z,85.4
2024-03-24T03:01:34.694Z,85.4
2024-03-24T03:02:34.701Z,85.8
2024-03-24T03:03:34.694Z,85.3
2024-03-24T03:04:30.183Z,85.1
2024-03-24T03:05:34.688Z,85
2024-03-24T03:06:34.683Z,84.9
2024-03-24T03:07:34.693Z,84.9
2024-03-24T03:08:34.691Z,85.9
2024-03-24T03:09:34.770Z,85.8
2024-03-24T03:10:34.722Z,85.6
2024-03-24T03:11:34.704Z,85.2
2024-03-24T03:12:34.691Z,85
2024-03-24T03:13:34.699Z,85.4
2024-03-24T03:14:34.699Z,85
2024-03-24T03:15:34.692Z,85.2
2024-03-24T03:16:34.740Z,85.6
2024-03-24T03:17:34.700Z,86
2024-03-24T03:18:34.693Z,86
2024-03-24T03:19:34.987Z,85.5
2024-03-24T03:20:34.697Z,85.5
2024-03-24T03:21:34.699Z,85.6
2024-03-24T03:22:34.699Z,85.3
2024-03-24T03:23:34.691Z,85.4
2024-03-24T03:24:34.701Z,85.6
2024-03-24T03:25:34.709Z,85.7
2024-03-24T03:26:34.692Z,85.6
2024-03-24T03:27:34.695Z,85.5
2024-03-24T03:28:34.696Z,85.9
2024-03-24T03:29:34.690Z,86.1
2024-03-24T03:30:34.694Z,85.9
2024-03-24T03:31:34.785Z,86
2024-03-24T03:32:34.700Z,85.5
2024-03-24T03:33:34.695Z,85.5
2024-03-24T03:34:34.698Z,85.9
2024-03-24T03:35:34.687Z,85.7
2024-03-24T03:36:34.694Z,85.8
2024-03-24T03:37:34.697Z,85.5
2024-03-24T03:38:34.691Z,85.1
2024-03-24T03:39:34.694Z,85.1
2024-03-24T03:40:34.690Z,85.5
2024-03-24T03:41:34.696Z,85.8
2024-03-24T03:42:34.691Z,85.9
2024-03-24T03:43:34.687Z,85.8
2024-03-24T03:44:34.694Z,85.8
2024-03-24T03:45:34.697Z,85.4
2024-03-24T03:46:34.699Z,86
2024-03-24T03:47:34.689Z,86.2
2024-03-24T03:48:34.696Z,86.1
2024-03-24T03:49:34.696Z,86
2024-03-24T03:50:34.686Z,86
2024-03-24T03:51:34.695Z,86.1
2024-03-24T03:52:34.699Z,85.6
2024-03-24T03:53:34.730Z,86.1
2024-03-24T03:54:34.699Z,86.4
2024-03-24T03:55:34.688Z,86.4
2024-03-24T03:56:34.687Z,86.4
2024-03-24T03:57:34.691Z,86.4
2024-03-24T03:58:34.761Z,86.2
2024-03-24T03:59:34.693Z,86.2
2024-03-24T04:00:34.694Z,86.3
2024-03-24T04:01:34.695Z,86.3
2024-03-24T04:02:34.687Z,86.5
2024-03-24T04:03:34.696Z,86.7
2024-03-24T04:04:34.693Z,86.6
2024-03-24T04:05:35.335Z,86.1
2024-03-24T04:06:34.692Z,85.9
2024-03-24T04:07:34.690Z,85.6
2024-03-24T04:08:34.696Z,85.4
2024-03-24T04:09:34.702Z,85.9
2024-03-24T04:10:34.695Z,86.2
2024-03-24T04:11:34.696Z,86.2
2024-03-24T04:12:34.710Z,86.2
2024-03-24T04:13:34.708Z,85.7
2024-03-24T04:14:34.700Z,86.1
2024-03-24T04:15:34.700Z,86
2024-03-24T04:16:34.705Z,86.3
2024-03-24T04:17:34.762Z,85.6
2024-03-24T04:18:34.699Z,85.4
2024-03-24T04:19:34.700Z,86
2024-03-24T04:20:34.697Z,86.2
2024-03-24T04:21:34.700Z,86.4
2024-03-24T04:22:34.693Z,86.2
2024-03-24T04:23:34.698Z,86
2024-03-24T04:24:34.707Z,86.2
2024-03-24T04:25:34.694Z,86.1
2024-03-24T04:26:34.696Z,86.2
2024-03-24T04:27:34.691Z,86.5
2024-03-24T04:28:34.694Z,86.3
2024-03-24T04:29:34.702Z,86.3
2024-03-24T04:30:34.696Z,86.5
2024-03-24T04:31:34.710Z,86.4
2024-03-24T04:32:34.697Z,86.5
2024-03-24T04:33:34.694Z,86.6
2024-03-24T04:35:34.692Z,86.3
2024-03-24T04:36:34.699Z,86.6
2024-03-24T04:37:34.695Z,86.9
2024-03-24T04:38:34.716Z,86.8
2024-03-24T04:39:34.762Z,86.8
2024-03-24T04:40:34.706Z,86.6
2024-03-24T04:41:34.700Z,86.7
2024-03-24T04:42:34.711Z,86.9
2024-03-24T04:43:34.710Z,86.6
2024-03-24T04:44:34.695Z,86.6
2024-03-24T04:45:34.700Z,86.5
2024-03-24T04:46:34.703Z,86.4
2024-03-24T04:47:34.702Z,86.2
2024-03-24T04:48:34.697Z,86.3
2024-03-24T04:49:34.704Z,86.2
2024-03-24T04:50:34.725Z,85.8
2024-03-24T04:51:34.711Z,86.1
2024-03-24T04:52:34.702Z,86
2024-03-24T04:53:34.696Z,85.7
2024-03-24T04:54:34.701Z,85.9
2024-03-24T04:55:34.701Z,86.2
2024-03-24T04:56:34.709Z,86.2
2024-03-24T04:57:34.706Z,86.4
2024-03-24T04:58:34.712Z,86.6
2024-03-24T04:59:34.698Z,86.5
2024-03-24T05:00:34.695Z,86.3
2024-03-24T05:01:34.744Z,86.9
2024-03-24T05:02:34.707Z,87.4
2024-03-24T05:03:34.706Z,87.5
2024-03-24T05:04:34.702Z,86.6
2024-03-24T05:05:34.700Z,86.3
2024-03-24T05:06:34.760Z,85.9
2024-03-24T05:07:34.701Z,85.9
2024-03-24T05:08:34.703Z,85.7
2024-03-24T05:09:34.699Z,85.9
2024-03-24T05:10:34.699Z,86.2
2024-03-24T05:11:34.702Z,86.3
2024-03-24T05:12:34.697Z,86.4
2024-03-24T05:13:34.710Z,85.9
2024-03-24T05:14:34.726Z,85.7
2024-03-24T05:15:34.701Z,85.9
2024-03-24T05:16:34.700Z,86.1
2024-03-24T05:17:34.751Z,86.3
2024-03-24T05:18:34.766Z,86.2
2024-03-24T05:19:34.698Z,86.3
2024-03-24T05:20:34.700Z,85.7
2024-03-24T05:21:34.706Z,85.7
2024-03-24T05:22:34.700Z,86
2024-03-24T05:23:34.700Z,85.7
2024-03-24T05:24:34.714Z,85.3
2024-03-24T05:25:34.702Z,85.1
2024-03-24T05:26:34.706Z,84.8
2024-03-24T05:27:34.706Z,84.9
2024-03-24T05:28:42.271Z,85.5
2024-03-24T05:29:34.725Z,85.6
2024-03-24T05:30:34.708Z,85.4
2024-03-24T05:31:34.704Z,85.7
2024-03-24T05:32:34.763Z,86
2024-03-24T05:33:34.697Z,85.3
2024-03-24T05:34:34.712Z,85.4
2024-03-24T05:35:34.708Z,85.3
2024-03-24T05:36:34.702Z,85.6
2024-03-24T05:37:34.748Z,85.5
2024-03-24T05:38:34.703Z,85.4
2024-03-24T05:39:34.716Z,85.5
2024-03-24T05:40:34.711Z,85.1
2024-03-24T05:41:34.710Z,84.6
2024-03-24T05:42:34.704Z,84.7
2024-03-24T05:43:34.700Z,85
2024-03-24T05:44:35.465Z,84.4
2024-03-24T05:45:34.708Z,84.8
2024-03-24T05:46:34.713Z,84.8
2024-03-24T05:47:34.731Z,84.9
2024-03-24T05:48:34.708Z,84.9
2024-03-24T05:49:34.758Z,84.7
2024-03-24T05:50:34.710Z,84.2
2024-03-24T05:51:34.713Z,84.7
2024-03-24T05:52:34.698Z,84.8
2024-03-24T05:53:34.706Z,84.2
2024-03-24T05:54:34.709Z,84.2
2024-03-24T05:55:34.711Z,84.4
2024-03-24T05:56:34.705Z,84.7
2024-03-24T05:57:34.719Z,84.7
2024-03-24T05:58:34.709Z,84.6
2024-03-24T05:59:34.712Z,84.6
2024-03-24T06:00:34.705Z,84.4
2024-03-24T06:01:35.619Z,84.7
2024-03-24T06:02:34.702Z,85
2024-03-24T06:03:34.715Z,84.9
2024-03-24T06:04:34.714Z,84.8
2024-03-24T06:05:34.708Z,85.4
2024-03-24T06:06:34.718Z,85.8
2024-03-24T06:07:34.709Z,86.5
2024-03-24T06:08:35.635Z,86.9
2024-03-24T06:09:34.700Z,86.9
2024-03-24T06:10:34.700Z,86.6
2024-03-24T06:11:35.002Z,87
2024-03-24T06:12:34.708Z,86.7
2024-03-24T06:13:34.721Z,87
2024-03-24T06:14:34.713Z,86.6
2024-03-24T06:15:34.713Z,86.7
2024-03-24T06:16:34.706Z,87.1
2024-03-24T06:17:34.707Z,86.8
2024-03-24T06:18:34.706Z,86.6
2024-03-24T06:19:34.710Z,86.5
2024-03-24T06:20:34.710Z,86.3
2024-03-24T06:21:34.762Z,85.8
2024-03-24T06:22:34.716Z,86.3
2024-03-24T06:23:34.705Z,86.5
2024-03-24T06:24:34.708Z,86.4
2024-03-24T06:25:34.714Z,86.3
2024-03-24T06:26:34.700Z,86.5
2024-03-24T06:27:34.709Z,86.5
2024-03-24T06:28:34.703Z,86.6
2024-03-24T06:29:34.709Z,86.5
2024-03-24T06:30:34.712Z,86.3
2024-03-24T06:31:34.720Z,86.2
2024-03-24T06:32:34.720Z,85.3
2024-03-24T06:33:34.717Z,85.3
2024-03-24T06:34:34.715Z,85
2024-03-24T06:35:34.710Z,85.4
2024-03-24T06:36:34.711Z,85.3
2024-03-24T06:37:34.702Z,85.4
2024-03-24T06:38:34.757Z,85.3
2024-03-24T06:39:36.872Z,85.1
2024-03-24T06:40:34.707Z,85.3
2024-03-24T06:41:34.708Z,85.7
2024-03-24T06:42:34.721Z,86
2024-03-24T06:43:34.712Z,86.1
2024-03-24T06:44:34.717Z,86.1
2024-03-24T06:45:34.714Z,86.8
2024-03-24T06:46:34.718Z,86.6
2024-03-24T06:47:34.702Z,86.7
2024-03-24T06:48:34.710Z,86.9
2024-03-24T06:49:34.750Z,86.3
2024-03-24T06:50:34.713Z,86.2
2024-03-24T06:51:34.734Z,85.7
2024-03-24T06:52:34.710Z,85.8
2024-03-24T06:53:34.716Z,85.1
2024-03-24T06:54:36.246Z,85.1
2024-03-24T06:55:34.723Z,85.8
2024-03-24T06:56:34.715Z,85.9
2024-03-24T06:57:34.708Z,86.5
2024-03-24T06:58:34.710Z,86.5
2024-03-24T06:59:34.715Z,86.5
2024-03-24T07:00:36.186Z,86.1
2024-03-24T07:01:34.723Z,85.5
2024-03-24T07:02:34.711Z,85.8
2024-03-24T07:03:34.720Z,85.8
2024-03-24T07:04:35.419Z,85.2
2024-03-24T07:05:34.721Z,84.9
2024-03-24T07:06:34.718Z,85.1
2024-03-24T07:07:34.718Z,85.7
2024-03-24T07:08:34.717Z,85.3
2024-03-24T07:09:34.723Z,85.6
2024-03-24T07:10:34.753Z,85.6
2024-03-24T07:11:34.725Z,85.7
2024-03-24T07:12:34.716Z,85.5
2024-03-24T07:13:34.735Z,85.4
2024-03-24T07:14:34.716Z,85.5
2024-03-24T07:15:34.718Z,84.7
2024-03-24T07:16:34.724Z,84.6
2024-03-24T07:17:34.706Z,84.9
2024-03-24T07:18:34.713Z,84.4
2024-03-24T07:19:34.724Z,84.1
2024-03-24T07:20:34.775Z,84
2024-03-24T07:21:34.715Z,84.4
2024-03-24T07:22:34.717Z,84.7
2024-03-24T07:23:34.752Z,85
2024-03-24T07:24:34.709Z,85.4
2024-03-24T07:25:34.722Z,85.8
2024-03-24T07:26:34.727Z,86.3
2024-03-24T07:27:35.071Z,86.5
2024-03-24T07:28:34.723Z,85.8
2024-03-24T07:29:34.712Z,85.1
2024-03-24T07:30:34.706Z,85.4
2024-03-24T07:31:34.709Z,85.9
2024-03-24T07:32:34.719Z,86.4
2024-03-24T07:33:34.717Z,86.6
2024-03-24T07:34:34.726Z,86.2
2024-03-24T07:35:34.728Z,86.5
2024-03-24T07:36:34.713Z,87.3
2024-03-24T07:37:34.713Z,86.5
2024-03-24T07:38:34.737Z,86.8
2024-03-24T07:39:34.721Z,87
2024-03-24T07:40:35.480Z,87
2024-03-24T07:41:34.714Z,86.4
2024-03-24T07:42:34.715Z,85.9
2024-03-24T07:43:34.728Z,86
2024-03-24T07:44:34.771Z,85.8
2024-03-24T07:45:34.716Z,86.5
2024-03-24T07:46:34.713Z,86.9
2024-03-24T07:47:34.714Z,87
2024-03-24T07:48:34.726Z,86.9
2024-03-24T07:49:34.775Z,86.9
2024-03-24T07:50:34.722Z,87.4
2024-03-24T07:51:34.718Z,86.8
2024-03-24T07:52:34.728Z,87.1
2024-03-24T07:53:34.724Z,86.5
2024-03-24T07:54:34.758Z,86.3
2024-03-24T07:55:34.739Z,85.7
2024-03-24T07:56:34.715Z,85.9
2024-03-24T07:57:34.717Z,86.6
2024-03-24T07:58:34.712Z,86.9
2024-03-24T07:59:34.709Z,86.4
2024-03-24T08:00:34.713Z,86.5
2024-03-24T08:01:34.766Z,86.2
2024-03-24T08:02:34.710Z,86
2024-03-24T08:03:34.716Z,85.8
2024-03-24T08:04:34.712Z,85.8
2024-03-24T08:05:34.827Z,85.7
2024-03-24T08:06:34.718Z,85.7
2024-03-24T08:07:34.715Z,86.1
2024-03-24T08:08:34.717Z,86.7
2024-03-24T08:09:34.719Z,87
2024-03-24T08:10:36.692Z,86.5
2024-03-24T08:11:34.741Z,86.5
2024-03-24T08:12:34.711Z,86.4
2024-03-24T08:13:34.716Z,86.6
2024-03-24T08:14:34.719Z,86.8
2024-03-24T08:15:34.725Z,86.3
2024-03-24T08:16:34.711Z,86.2
2024-03-24T08:17:34.716Z,85.5
2024-03-24T08:18:34.729Z,84.9
2024-03-24T08:19:34.719Z,84.6
2024-03-24T08:20:34.713Z,85.3
2024-03-24T08:21:35.104Z,85.5
2024-03-24T08:22:34.716Z,85.9
2024-03-24T08:23:34.716Z,86
2024-03-24T08:24:34.715Z,85.8
2024-03-24T08:25:34.712Z,85.8
2024-03-24T08:26:34.714Z,84.8
2024-03-24T08:27:34.716Z,85.6
2024-03-24T08:28:34.720Z,85.7
2024-03-24T08:29:34.717Z,85
2024-03-24T08:30:34.704Z,85.2
2024-03-24T08:31:34.716Z,85.4
2024-03-24T08:32:34.722Z,85.7
2024-03-24T08:33:34.726Z,85.8
2024-03-24T08:34:34.720Z,86.1
2024-03-24T08:35:34.740Z,87.5
2024-03-24T08:36:34.727Z,87.8
2024-03-24T08:37:35.099Z,87.1
2024-03-24T08:38:34.719Z,87
2024-03-24T08:39:34.720Z,86.4
2024-03-24T08:40:34.771Z,86.3
2024-03-24T08:41:34.718Z,85.8
2024-03-24T08:42:34.718Z,86.1
2024-03-24T08:43:34.728Z,86.5
2024-03-24T08:44:34.716Z,86.3
2024-03-24T08:45:34.787Z,86.3
2024-03-24T08:46:34.727Z,86.6
2024-03-24T08:47:34.721Z,87
2024-03-24T08:48:41.945Z,87.1
2024-03-24T08:49:34.824Z,87.2
2024-03-24T08:50:34.720Z,87.5
2024-03-24T08:51:34.717Z,87.3
2024-03-24T08:52:34.759Z,87.5
2024-03-24T08:53:34.718Z,87.4
2024-03-24T08:54:34.720Z,87.8
2024-03-24T08:55:34.726Z,87.5
2024-03-24T08:56:34.726Z,87.8
2024-03-24T08:57:35.106Z,87.8
2024-03-24T08:58:34.722Z,87.5
2024-03-24T08:59:34.718Z,86.4
2024-03-24T09:00:34.721Z,86.2
2024-03-24T09:01:36.795Z,85.9
2024-03-24T09:02:34.719Z,86.5
2024-03-24T09:03:34.725Z,85.7
2024-03-24T09:04:34.734Z,85.4
2024-03-24T09:05:34.719Z,85.5
2024-03-24T09:06:34.716Z,86
2024-03-24T09:07:34.760Z,86.4
2024-03-24T09:09:34.726Z,86.3
2024-03-24T09:10:34.721Z,86
2024-03-24T09:11:34.728Z,85.8
2024-03-24T09:12:34.802Z,85.4
2024-03-24T09:13:34.721Z,85.4
2024-03-24T09:14:34.725Z,85.7
2024-03-24T09:15:34.723Z,85.5
2024-03-24T09:16:37.711Z,85.2
2024-03-24T09:17:34.724Z,84.3
2024-03-24T09:18:34.717Z,84.5
2024-03-24T09:19:34.713Z,84.2
2024-03-24T09:20:34.725Z,84.2
2024-03-24T09:21:34.721Z,84
2024-03-24T09:22:34.728Z,84.3
2024-03-24T09:23:34.734Z,84.7
2024-03-24T09:24:34.766Z,84.3
2024-03-24T09:25:35.162Z,83.2
2024-03-24T09:26:34.753Z,83
2024-03-24T09:27:34.727Z,83
2024-03-24T09:28:34.725Z,82.1
2024-03-24T09:29:34.730Z,82.7
2024-03-24T09:30:34.721Z,83
2024-03-24T09:31:34.736Z,82.7
2024-03-24T09:32:34.729Z,82.6
2024-03-24T09:33:34.733Z,82.5
2024-03-24T09:34:34.728Z,81.9
2024-03-24T09:35:34.728Z,82.1
2024-03-24T09:36:34.731Z,81.4
2024-03-24T09:37:34.726Z,82.7
2024-03-24T09:38:34.729Z,82.4
2024-03-24T09:39:34.755Z,81.9
2024-03-24T09:40:34.745Z,81.9
2024-03-24T09:41:34.730Z,81.6
2024-03-24T09:42:34.738Z,81.6
2024-03-24T09:43:34.747Z,80.4
2024-03-24T09:44:34.731Z,80.2
2024-03-24T09:45:34.728Z,80.7
2024-03-24T09:46:35.133Z,81.5
2024-03-24T09:47:35.701Z,81.2
2024-03-24T09:48:34.781Z,81.1
2024-03-24T09:49:34.727Z,80.3
2024-03-24T09:50:34.761Z,80.4
2024-03-24T09:51:34.730Z,80.5
2024-03-24T09:52:34.728Z,80.4
2024-03-24T09:53:34.792Z,81
2024-03-24T09:54:34.726Z,80.6
2024-03-24T09:55:34.727Z,79.9
2024-03-24T09:56:34.729Z,79.8
2024-03-24T09:57:34.730Z,79.3
2024-03-24T09:58:34.749Z,78.5
2024-03-24T09:59:34.734Z,78.8
2024-03-24T10:00:34.732Z,78.7
2024-03-24T10:01:34.727Z,78.7
2024-03-24T10:02:34.731Z,79.1
2024-03-24T10:03:34.728Z,77.9
2024-03-24T10:04:34.726Z,78.2
2024-03-24T10:05:34.733Z,76.9
2024-03-24T10:06:34.742Z,76.3
2024-03-24T10:07:34.733Z,76.5
2024-03-24T10:08:34.727Z,77.2
2024-03-24T10:09:34.730Z,76.5
2024-03-24T10:10:34.729Z,76.5
2024-03-24T10:11:34.736Z,76.8
2024-03-24T10:12:34.731Z,76.9
2024-03-24T10:13:34.726Z,75.3
2024-03-24T10:14:34.731Z,75.1
2024-03-24T10:15:34.770Z,74.5
2024-03-24T10:16:34.727Z,74.1
2024-03-24T10:17:34.728Z,73.5
2024-03-24T10:18:34.734Z,74.5
2024-03-24T10:19:34.734Z,75.3
2024-03-24T10:20:34.782Z,74.2
2024-03-24T10:21:34.733Z,73.8
2024-03-24T10:22:34.726Z,74.6
2024-03-24T10:23:34.738Z,73.3
2024-03-24T10:24:34.729Z,73.4
2024-03-24T10:25:41.184Z,74.5
2024-03-24T10:26:34.742Z,74.4
2024-03-24T10:27:34.790Z,73.7
2024-03-24T10:28:34.735Z,73.4
2024-03-24T10:29:34.742Z,73.8
2024-03-24T10:30:34.730Z,74.9
2024-03-24T10:31:34.734Z,73.9
2024-03-24T10:32:34.769Z,73.8
2024-03-24T10:33:34.730Z,73.5
2024-03-24T10:34:34.795Z,73.6
2024-03-24T10:35:34.730Z,73.3
2024-03-24T10:36:34.727Z,73.2
2024-03-24T10:37:34.730Z,73
2024-03-24T10:38:34.734Z,73.3
2024-03-24T10:39:34.783Z,72.7
2024-03-24T10:40:34.738Z,72.8
2024-03-24T10:41:34.737Z,73.7
2024-03-24T10:42:34.744Z,74
2024-03-24T10:43:34.747Z,73.5
2024-03-24T10:44:34.744Z,73.4
2024-03-24T10:45:34.736Z,72.7
2024-03-24T10:46:34.730Z,72.3
2024-03-24T10:47:34.728Z,72.6
2024-03-24T10:48:34.729Z,73.4
2024-03-24T10:49:34.731Z,72.5
2024-03-24T10:50:34.734Z,72.8
2024-03-24T10:51:34.731Z,73
2024-03-24T10:52:34.730Z,72.1
2024-03-24T10:53:34.735Z,71.4
2024-03-24T10:54:34.736Z,71.7
2024-03-24T10:55:34.740Z,72.6
2024-03-24T10:56:34.773Z,72.5
2024-03-24T10:57:34.743Z,73.5
2024-03-24T10:58:34.742Z,73
2024-03-24T10:59:34.747Z,72.8
2024-03-24T11:00:34.736Z,72.3
2024-03-24T11:01:34.801Z,72.2
2024-03-24T11:02:34.728Z,72.7
2024-03-24T11:03:34.735Z,73.4
2024-03-24T11:04:34.738Z,73.7
2024-03-24T11:05:35.135Z,72.9
2024-03-24T11:06:34.745Z,72.8
2024-03-24T11:07:34.737Z,72.8
2024-03-24T11:08:34.750Z,72.3
2024-03-24T11:09:34.737Z,73.3
2024-03-24T11:10:34.732Z,72.6
2024-03-24T11:11:34.735Z,73.3
2024-03-24T11:12:34.736Z,72.7
2024-03-24T11:13:34.733Z,73
2024-03-24T11:14:34.738Z,73.4
2024-03-24T11:15:34.738Z,72.9
2024-03-24T11:16:34.750Z,73.4
2024-03-24T11:17:34.739Z,73.6
2024-03-24T11:18:34.732Z,73.5
2024-03-24T11:19:34.740Z,73.1
2024-03-24T11:20:34.742Z,73.8
2024-03-24T11:21:34.764Z,72.7
2024-03-24T11:22:34.738Z,73.8
2024-03-24T11:23:34.745Z,73.7
2024-03-24T11:24:36.324Z,73.7
2024-03-24T11:25:28.648Z,73.5
2024-03-24T11:26:34.735Z,74
2024-03-24T11:27:34.741Z,75.4
2024-03-24T11:28:34.783Z,77.2
2024-03-24T11:29:34.738Z,78.3
2024-03-24T11:30:34.736Z,79.3
2024-03-24T11:31:34.741Z,80.7
2024-03-24T11:32:34.752Z,82.2
2024-03-24T11:33:34.816Z,82
2024-03-24T11:34:34.748Z,81.9
2024-03-24T11:35:36.557Z,82
2024-03-24T11:36:34.770Z,82.4
2024-03-24T11:37:34.767Z,82.8
2024-03-24T11:38:34.733Z,83.7
2024-03-24T11:39:36.113Z,84.1
2024-03-24T11:40:34.743Z,84.1
2024-03-24T11:41:34.739Z,85
2024-03-24T11:42:34.745Z,84.4
2024-03-24T11:43:34.736Z,83.7
2024-03-24T11:44:34.760Z,83.6
2024-03-24T11:45:34.745Z,84
2024-03-24T11:46:34.740Z,84.1
2024-03-24T11:47:36.981Z,84
2024-03-24T11:48:34.752Z,83.9
2024-03-24T11:49:34.759Z,83.9
2024-03-24T11:50:34.744Z,83.8
2024-03-24T11:51:34.746Z,84.1
2024-03-24T11:52:34.742Z,83.9
2024-03-24T11:53:34.743Z,83.1
2024-03-24T11:54:34.746Z,83.2
2024-03-24T11:55:34.793Z,83.2
2024-03-24T11:56:34.739Z,83.4
2024-03-24T11:57:34.744Z,83.2
2024-03-24T11:58:34.740Z,83.3
2024-03-24T11:59:34.915Z,82.4
2024-03-24T12:00:34.746Z,82.6
2024-03-24T12:01:34.741Z,82.7
2024-03-24T12:02:34.762Z,81.4
2024-03-24T12:03:34.743Z,80.9
2024-03-24T12:04:34.749Z,81.3
2024-03-24T12:05:34.754Z,80.9
2024-03-24T12:06:37.708Z,81.4
2024-03-24T12:07:34.751Z,80
2024-03-24T12:08:34.760Z,79.6
2024-03-24T12:09:34.742Z,79.7
2024-03-24T12:10:34.743Z,78.9
2024-03-24T12:11:34.751Z,79.7
2024-03-24T12:12:34.746Z,78.6
2024-03-24T12:13:34.749Z,78.9
2024-03-24T12:14:34.755Z,77.9
2024-03-24T12:15:34.749Z,77.7
2024-03-24T12:16:34.756Z,77.8
2024-03-24T12:17:34.751Z,77.5
2024-03-24T12:18:34.750Z,77.5
2024-03-24T12:19:34.743Z,78.4
2024-03-24T12:20:36.196Z,77.4
2024-03-24T12:21:34.749Z,76.8
2024-03-24T12:22:34.752Z,77.5
2024-03-24T12:23:34.770Z,76.7
2024-03-24T12:24:34.743Z,76.4
2024-03-24T12:25:34.751Z,76.7
2024-03-24T12:26:34.748Z,76.3
2024-03-24T12:27:34.816Z,75
2024-03-24T12:28:34.758Z,75.5
2024-03-24T12:29:34.747Z,75.9
2024-03-24T12:30:34.752Z,75.2
2024-03-24T12:31:34.752Z,74.9
2024-03-24T12:32:34.819Z,74.4
2024-03-24T12:33:34.748Z,74.2
2024-03-24T12:34:34.744Z,74.1
2024-03-24T12:35:34.748Z,75.3
2024-03-24T12:36:35.146Z,74.1
2024-03-24T12:38:34.755Z,74.9
2024-03-24T12:39:34.751Z,74.7
2024-03-24T12:40:34.748Z,74.3
2024-03-24T12:41:34.752Z,73.2
2024-03-24T12:42:34.749Z,72.9
2024-03-24T12:43:34.757Z,73.4
2024-03-24T12:44:34.742Z,72.7
2024-03-24T12:45:34.812Z,72.3
2024-03-24T12:46:34.770Z,72.6
2024-03-24T12:47:34.743Z,72.6
2024-03-24T12:48:34.751Z,72.4
2024-03-24T12:49:57.729Z,72
2024-03-24T12:50:41.801Z,72.8
2024-03-24T12:51:34.743Z,73
2024-03-24T12:52:34.846Z,72.1
2024-03-24T12:53:34.755Z,71.9
2024-03-24T12:54:34.754Z,72.5
2024-03-24T12:55:34.765Z,73.4
2024-03-24T12:56:34.755Z,72.1
2024-03-24T12:57:34.750Z,71.8
2024-03-24T12:58:35.276Z,71.3
2024-03-24T12:59:34.745Z,71.4
2024-03-24T13:00:34.744Z,71.5
2024-03-24T13:01:34.774Z,71.6
2024-03-24T13:02:34.742Z,71.6
2024-03-24T13:03:34.763Z,70.8
2024-03-24T13:04:34.800Z,71.3
2024-03-24T13:05:34.747Z,72
2024-03-24T13:06:34.759Z,72.6
2024-03-24T13:07:34.772Z,72.5
2024-03-24T13:08:34.744Z,72.3
2024-03-24T13:09:34.755Z,72
2024-03-24T13:10:34.796Z,72.2
2024-03-24T13:11:34.749Z,72.5
2024-03-24T13:12:34.760Z,71.7
2024-03-24T13:13:34.776Z,72.4
2024-03-24T13:14:34.762Z,72
2024-03-24T13:15:34.752Z,72.4
2024-03-24T13:16:34.781Z,72
2024-03-24T13:17:34.752Z,72.3
2024-03-24T13:18:34.752Z,72
2024-03-24T13:19:34.782Z,71.8
2024-03-24T13:20:34.759Z,72.1
2024-03-24T13:21:34.748Z,71.4
2024-03-24T13:22:34.773Z,71.6
2024-03-24T13:23:34.759Z,70.8
2024-03-24T13:24:34.804Z,72
2024-03-24T13:25:34.799Z,71.7
2024-03-24T13:26:34.749Z,72.8
2024-03-24T13:27:34.751Z,73.5